Time;durP1;ratioP1;P1;durP2;ratioP2;P2;SDS_P1;SDS_P2;PMS_P1;PMS_P2;Temp;Humidity;BMP_temperature;BMP_pressure;BME280_temperature;BME280_humidity;BME280_pressure;Samples;Min_cycle;Max_cycle;Signal;HPM_P1;HPM_P2
2022/11/05 00:10:37;;;;;;;31.00;19.53;;;;;;;11.92;100.00;94060.03;5033188;28;20193;-61
2022/11/05 00:18:33;;;;;;;30.90;18.80;;;;;;;11.85;100.00;94042.03;5032316;28;20244;-59
2022/11/05 00:20:59;;;;;;;29.47;18.57;;;;;;;11.77;100.00;94041.97;5032970;28;20186;-64
2022/11/05 00:26:12;;;;;;;35.87;18.90;;;;;;;11.84;100.00;94040.41;5033135;28;20420;-61
2022/11/05 00:28:43;;;;;;;29.93;18.87;;;;;;;11.94;100.00;94053.81;5031582;28;20245;-58
2022/11/05 00:31:12;;;;;;;31.07;19.57;;;;;;;12.00;100.00;94015.00;5032871;28;20206;-61
2022/11/05 00:33:41;;;;;;;31.77;18.30;;;;;;;11.78;100.00;94034.19;5032837;28;20182;-62
2022/11/05 00:36:09;;;;;;;28.37;19.50;;;;;;;11.48;100.00;94049.91;5015501;28;20240;-60
2022/11/05 00:38:35;;;;;;;28.03;17.60;;;;;;;11.64;100.00;94011.81;5032546;28;20209;-62
2022/11/05 00:41:01;;;;;;;32.97;17.63;;;;;;;11.98;100.00;94042.38;5032643;28;20190;-62
2022/11/05 00:46:10;;;;;;;33.43;18.67;;;;;;;11.71;100.00;94033.22;5032884;28;20253;-62
2022/11/05 00:51:20;;;;;;;29.33;17.50;;;;;;;12.05;100.00;94034.94;5032682;28;20268;-61
2022/11/05 00:53:46;;;;;;;34.37;19.57;;;;;;;11.75;100.00;94020.97;5032403;28;20660;-59
2022/11/05 00:56:11;;;;;;;32.63;19.30;;;;;;;12.07;100.00;94038.13;5032682;28;20616;-61
2022/11/05 00:58:37;;;;;;;35.50;17.43;;;;;;;12.23;100.00;94033.88;5032570;28;20194;-62
2022/11/05 01:01:03;;;;;;;33.93;18.97;;;;;;;12.24;100.00;94037.22;5032443;28;20244;-61
2022/11/05 01:03:32;;;;;;;29.23;17.70;;;;;;;11.90;100.00;94031.38;5032581;28;20198;-60
2022/11/05 01:06:19;;;;;;;30.33;18.03;;;;;;;12.01;100.00;94026.00;5032106;28;20754;-59
2022/11/05 01:08:45;;;;;;;27.80;17.23;;;;;;;12.15;100.00;94020.31;5031854;28;20710;-58
2022/11/05 01:11:33;;;;;;;32.83;18.33;;;;;;;11.95;100.00;94016.41;5032051;28;20267;-62
2022/11/05 01:14:07;;;;;;;26.23;16.87;;;;;;;12.18;100.00;94014.91;5032267;28;20609;-62
2022/11/05 01:16:33;;;;;;;37.93;18.93;;;;;;;12.38;100.00;94036.63;5014425;28;20216;-61
2022/11/05 01:19:00;;;;;;;31.20;18.43;;;;;;;12.34;100.00;94022.59;5030768;28;20198;-61
2022/11/05 01:21:25;;;;;;;29.23;17.93;;;;;;;12.23;100.00;94003.31;5031940;28;20202;-61
2022/11/05 01:23:52;;;;;;;27.00;18.60;;;;;;;12.26;100.00;93995.31;5031903;28;20235;-62
2022/11/05 01:26:17;;;;;;;28.27;17.50;;;;;;;11.98;100.00;93990.66;5014221;28;20309;-62
2022/11/05 01:28:42;;;;;;;29.30;18.57;;;;;;;12.19;100.00;94013.94;5032019;28;20266;-60
2022/11/05 01:31:08;;;;;;;26.80;17.40;;;;;;;12.39;100.00;94026.28;5031829;28;20210;-61
2022/11/05 01:33:33;;;;;;;33.97;18.43;;;;;;;12.09;100.00;93985.25;5031921;28;20266;-61
2022/11/05 01:35:59;;;;;;;30.70;18.43;;;;;;;11.99;100.00;93975.22;5031454;28;20596;-62
2022/11/05 01:38:24;;;;;;;28.57;18.10;;;;;;;12.31;100.00;93989.78;5031556;28;20243;-62
2022/11/05 01:40:50;;;;;;;29.27;18.00;;;;;;;11.91;100.00;93956.56;5031847;28;20183;-60
2022/11/05 01:43:17;;;;;;;29.33;18.37;;;;;;;11.81;100.00;93971.97;5031628;28;20550;-62
2022/11/05 01:45:50;;;;;;;34.10;19.13;;;;;;;11.79;100.00;93969.59;5031871;28;20738;-62
2022/11/05 01:48:29;;;;;;;31.07;18.93;;;;;;;11.94;100.00;93961.34;5031550;28;20523;-63
2022/11/05 01:51:05;;;;;;;34.60;18.53;;;;;;;12.16;100.00;93983.69;5031700;28;20247;-64
2022/11/05 01:53:49;;;;;;;27.33;18.07;;;;;;;12.46;100.00;94003.50;5031543;28;20198;-60
2022/11/05 01:56:25;;;;;;;30.20;18.60;;;;;;;12.04;100.00;93957.69;5031631;28;20237;-62
2022/11/05 01:58:57;;;;;;;32.37;17.73;;;;;;;11.64;100.00;93962.63;5031454;28;20186;-62
2022/11/05 02:01:23;;;;;;;32.00;19.40;;;;;;;11.46;100.00;93936.47;5013648;28;20776;-62
2022/11/05 02:03:53;;;;;;;35.27;19.13;;;;;;;11.49;100.00;93951.44;4997447;28;20194;-61
2022/11/05 02:06:20;;;;;;;27.20;17.97;;;;;;;11.63;100.00;93953.41;5013198;28;20710;-61
2022/11/05 02:09:00;;;;;;;33.73;19.03;;;;;;;11.56;100.00;93932.06;5031073;28;20554;-61
2022/11/05 02:11:26;;;;;;;32.87;19.23;;;;;;;11.74;100.00;93941.22;5013295;28;20206;-61
2022/11/05 02:13:52;;;;;;;35.07;19.37;;;;;;;11.52;100.00;93949.38;5031133;28;20190;-60
2022/11/05 02:16:23;;;;;;;32.70;20.13;;;;;;;11.56;100.00;93953.22;5031229;28;20205;-63
2022/11/05 02:19:14;;;;;;;31.53;19.53;;;;;;;11.49;100.00;93948.91;5031280;28;20660;-60
2022/11/05 02:22:04;;;;;;;33.80;18.37;;;;;;;11.88;100.00;93977.25;5031607;22;20257;-60
2022/11/05 02:25:06;;;;;;;27.97;16.93;;;;;;;11.82;100.00;93956.53;5011484;28;20646;-60
2022/11/05 02:27:59;;;;;;;29.03;18.43;;;;;;;11.52;100.00;93951.94;5011167;28;20211;-60
2022/11/05 02:30:33;;;;;;;29.23;19.30;;;;;;;11.47;100.00;93946.50;5011146;28;20175;-63
2022/11/05 02:33:08;;;;;;;35.77;20.80;;;;;;;11.39;100.00;93943.91;5011331;28;20211;-59
2022/11/05 02:35:55;;;;;;;34.27;19.47;;;;;;;11.44;100.00;93961.28;5011274;28;20210;-61
2022/11/05 02:38:49;;;;;;;31.13;18.93;;;;;;;11.61;100.00;93952.78;5011241;28;20656;-61
2022/11/05 02:41:34;;;;;;;32.20;19.77;;;;;;;11.48;100.00;93957.47;4983826;28;20227;-62
2022/11/05 02:44:02;;;;;;;26.80;18.97;;;;;;;11.70;100.00;93964.59;5011105;28;20257;-60
2022/11/05 02:46:56;;;;;;;34.50;19.67;;;;;;;11.61;100.00;93950.22;5010991;28;20229;-62
2022/11/05 02:49:37;;;;;;;26.33;18.60;;;;;;;12.04;100.00;93982.41;5011029;28;20187;-60
2022/11/05 02:52:15;;;;;;;29.63;18.67;;;;;;;12.01;100.00;93972.50;5009532;28;20238;-62
2022/11/05 02:54:58;;;;;;;30.73;19.33;;;;;;;11.99;100.00;93975.22;5009602;28;20671;-62
2022/11/05 02:57:23;;;;;;;30.73;19.30;;;;;;;12.19;100.00;93996.13;5011425;28;20245;-59
2022/11/05 02:59:59;;;;;;;31.77;19.50;;;;;;;12.11;100.00;93993.53;5011092;28;20187;-62
2022/11/05 03:02:25;;;;;;;37.67;19.00;;;;;;;11.87;100.00;93961.16;5011125;28;20684;-62
2022/11/05 03:04:50;;;;;;;33.40;19.93;;;;;;;11.92;100.00;93965.81;5010833;28;20183;-63
2022/11/05 03:07:39;;;;;;;33.87;19.77;;;;;;;12.00;100.00;93973.47;5010845;28;20296;-62
2022/11/05 03:10:31;;;;;;;32.83;19.13;;;;;;;12.19;100.00;93986.72;5009506;28;20684;-60
2022/11/05 03:13:36;;;;;;;29.97;18.33;;;;;;;12.34;100.00;94009.88;5010634;28;20218;-61
2022/11/05 03:16:10;;;;;;;31.27;19.93;;;;;;;12.16;100.00;93986.25;4980516;28;20215;-60
2022/11/05 03:18:45;;;;;;;28.97;17.80;;;;;;;12.27;100.00;94002.03;5010593;28;20187;-60
2022/11/05 03:21:21;;;;;;;30.70;18.37;;;;;;;12.09;100.00;93975.06;5009425;28;20566;-63
2022/11/05 03:23:58;;;;;;;33.07;19.63;;;;;;;11.79;100.00;93951.75;5010751;28;20615;-62
2022/11/05 03:26:50;;;;;;;30.23;19.20;;;;;;;11.78;100.00;93951.91;5011023;28;20222;-60
2022/11/05 03:29:21;;;;;;;33.07;19.73;;;;;;;11.87;100.00;93965.47;5010750;28;20305;-60
2022/11/05 03:31:49;;;;;;;30.80;20.50;;;;;;;11.99;100.00;93974.41;5010290;28;20301;-59
2022/11/05 03:34:18;;;;;;;39.93;18.47;;;;;;;12.28;100.00;94003.63;5010507;28;20327;-63
2022/11/05 03:36:50;;;;;;;35.13;19.33;;;;;;;12.08;100.00;93987.00;5010397;28;20711;-61
2022/11/05 03:39:23;;;;;;;33.20;19.93;;;;;;;12.04;100.00;93984.94;5010348;28;20273;-62
2022/11/05 03:41:50;;;;;;;33.57;19.33;;;;;;;12.35;100.00;94032.63;5010934;28;20684;-61
2022/11/05 03:44:23;;;;;;;33.33;19.67;;;;;;;12.17;100.00;94013.31;5010153;28;20241;-61
2022/11/05 03:46:52;;;;;;;29.60;19.47;;;;;;;11.78;100.00;93985.81;5009060;28;20226;-61
2022/11/05 03:49:24;;;;;;;31.07;19.10;;;;;;;12.02;100.00;94007.22;5010042;28;20186;-61
2022/11/05 03:52:15;;;;;;;32.63;18.27;;;;;;;12.25;100.00;94024.31;5010428;28;20219;-61
2022/11/05 03:54:40;;;;;;;32.27;19.70;;;;;;;12.23;100.00;94017.78;5012588;28;20243;-59
2022/11/05 03:57:32;;;;;;;37.17;19.40;;;;;;;12.04;100.00;94018.84;5013485;28;20628;-60
2022/11/05 03:59:57;;;;;;;30.30;19.87;;;;;;;11.98;100.00;94001.63;5013512;28;20191;-60
2022/11/05 04:02:25;;;;;;;29.23;19.37;;;;;;;12.06;100.00;94013.59;5012009;28;20211;-60
2022/11/05 04:04:51;;;;;;;31.80;18.07;;;;;;;12.02;100.00;94014.88;5013377;28;20668;-61
2022/11/05 04:17:05;;;;;;;34.93;19.77;;;;;;;11.48;100.00;93990.56;5013470;28;20190;-59
2022/11/05 04:18:16;;;;;;;30.03;20.00;;;;;;;11.63;100.00;93999.25;5013168;28;20194;-62
2022/11/05 04:26:09;;;;;;;31.80;19.23;;;;;;;12.02;100.00;94035.25;5013417;28;20273;-61
2022/11/05 04:31:29;;;;;;;34.00;20.87;;;;;;;11.85;100.00;94021.66;4959708;28;20239;-60
2022/11/05 04:33:54;;;;;;;25.77;18.37;;;;;;;11.91;100.00;94025.31;5013547;28;20265;-59
2022/11/05 04:36:20;;;;;;;26.93;19.10;;;;;;;11.87;100.00;94018.94;5013211;28;20245;-61
2022/11/05 04:38:45;;;;;;;33.53;19.33;;;;;;;11.88;100.00;94023.09;5013071;28;20245;-62
2022/11/05 04:41:12;;;;;;;28.73;18.13;;;;;;;11.80;100.00;94022.09;5013071;28;20230;-63
2022/11/05 04:43:38;;;;;;;30.43;18.87;;;;;;;11.91;100.00;94035.50;5012660;28;20667;-62
2022/11/05 04:46:03;;;;;;;27.83;18.43;;;;;;;11.92;100.00;94039.66;5037206;23;21674;-62
2022/11/05 04:48:29;;;;;;;36.33;19.27;;;;;;;11.86;100.00;94037.72;5032669;28;20573;-61
2022/11/05 04:50:54;;;;;;;32.00;18.67;;;;;;;11.78;100.00;94035.94;5032371;28;20216;-63
2022/11/05 04:53:19;;;;;;;29.10;18.87;;;;;;;11.82;100.00;94045.66;5032335;28;20286;-63
2022/11/05 04:55:45;;;;;;;31.40;19.33;;;;;;;11.87;100.00;94032.47;5032239;28;20664;-61
2022/11/05 04:58:10;;;;;;;31.13;18.53;;;;;;;11.92;100.00;94032.03;5032311;28;20222;-62
2022/11/05 05:00:35;;;;;;;28.47;18.77;;;;;;;11.97;100.00;94032.34;5032288;28;20285;-63
2022/11/05 05:03:01;;;;;;;31.37;19.50;;;;;;;11.79;100.00;94029.91;5022873;22;20222;-61
2022/11/05 05:05:26;;;;;;;35.93;18.67;;;;;;;11.83;100.00;94026.09;5012393;28;20683;-61
2022/11/05 05:07:52;;;;;;;29.77;19.70;;;;;;;12.05;100.00;94047.66;5012504;28;20221;-63
2022/11/05 05:10:17;;;;;;;33.47;20.27;;;;;;;12.21;100.00;94066.38;5012369;28;20187;-60
2022/11/05 05:12:42;;;;;;;32.73;19.43;;;;;;;12.12;100.00;94063.94;5012227;28;20346;-61
2022/11/05 05:15:08;;;;;;;32.87;19.33;;;;;;;12.02;100.00;94042.88;5012615;28;20191;-58
2022/11/05 05:17:33;;;;;;;33.77;20.43;;;;;;;12.09;100.00;94069.34;5012608;28;20743;-59
2022/11/05 05:22:43;;;;;;;34.77;20.37;;;;;;;12.05;100.00;94080.78;5012446;28;20268;-61
2022/11/05 05:25:08;;;;;;;33.83;20.07;;;;;;;12.01;100.00;94074.41;5012272;28;20599;-63
2022/11/05 05:27:34;;;;;;;34.43;21.57;;;;;;;12.12;100.00;94081.78;5012249;28;20218;-61
2022/11/05 05:29:59;;;;;;;30.77;20.50;;;;;;;12.12;100.00;94085.09;5012298;28;20194;-62
2022/11/05 05:32:25;;;;;;;35.47;20.87;;;;;;;11.92;100.00;94060.03;5012162;28;20207;-60
2022/11/05 05:34:51;;;;;;;36.80;20.20;;;;;;;12.02;100.00;94069.13;5012071;28;20188;-60
2022/11/05 05:37:17;;;;;;;33.13;19.60;;;;;;;12.21;100.00;94102.03;5011099;28;20219;-61
2022/11/05 05:39:46;;;;;;;32.83;20.93;;;;;;;12.15;100.00;94094.19;5012089;28;20297;-61
2022/11/05 05:42:12;;;;;;;36.97;22.07;;;;;;;12.16;100.00;94090.72;5012146;28;20290;-59
2022/11/05 05:44:38;;;;;;;34.80;22.40;;;;;;;12.16;100.00;94093.25;5012241;28;20194;-59
2022/11/05 05:47:04;;;;;;;35.13;20.93;;;;;;;11.94;100.00;94068.34;5011940;28;20219;-60
2022/11/05 05:49:29;;;;;;;40.90;23.23;;;;;;;12.20;100.00;94094.56;5011840;28;20529;-60
2022/11/05 05:51:55;;;;;;;36.53;23.00;;;;;;;12.09;100.00;94082.06;5011896;28;20218;-63
2022/11/05 05:54:21;;;;;;;40.50;23.03;;;;;;;12.21;100.00;94091.03;5010686;28;20565;-59
2022/11/05 05:56:47;;;;;;;32.73;19.40;;;;;;;12.34;100.00;94132.19;5011670;28;20304;-60
2022/11/05 05:59:12;;;;;;;32.40;20.87;;;;;;;12.33;100.00;94128.03;5011759;28;20187;-61
2022/11/05 06:01:38;;;;;;;30.73;19.40;;;;;;;12.33;100.00;94105.09;5011610;28;20318;-61
2022/11/05 06:04:03;;;;;;;32.13;19.23;;;;;;;12.64;100.00;94139.31;5011659;28;20205;-62
2022/11/05 06:06:29;;;;;;;34.57;20.13;;;;;;;12.59;100.00;94141.53;5011697;28;20227;-61
2022/11/05 06:08:55;;;;;;;30.63;19.20;;;;;;;12.75;100.00;94141.56;5011806;28;20191;-60
2022/11/05 06:11:24;;;;;;;37.87;21.67;;;;;;;12.75;100.00;94167.06;5011758;28;20681;-62
2022/11/05 06:13:49;;;;;;;27.07;19.00;;;;;;;12.62;100.00;94131.03;5011413;28;20728;-61
2022/11/05 06:16:15;;;;;;;31.43;18.53;;;;;;;12.70;100.00;94123.41;5010570;28;20760;-62
2022/11/05 06:18:41;;;;;;;29.70;19.17;;;;;;;12.75;100.00;94136.47;5011394;28;20183;-62
2022/11/05 06:21:12;;;;;;;27.33;18.37;;;;;;;12.75;100.00;94139.03;5011333;28;20214;-62
2022/11/05 06:23:39;;;;;;;28.33;17.90;;;;;;;13.03;100.00;94157.44;5011346;28;20210;-62
2022/11/05 06:26:07;;;;;;;34.20;19.10;;;;;;;12.94;100.00;94146.41;5011432;28;20218;-62
2022/11/05 06:28:33;;;;;;;27.07;16.93;;;;;;;12.99;100.00;94161.25;5009968;28;20207;-61
2022/11/05 06:30:59;;;;;;;29.65;18.65;;;;;;;13.12;100.00;94187.94;5011417;28;20206;-62
2022/11/05 06:33:25;;;;;;;30.80;17.15;;;;;;;12.99;100.00;94154.38;5011147;28;20632;-59
2022/11/05 06:35:51;;;;;;;24.23;15.88;;;;;;;13.11;100.00;94144.72;5011107;28;20195;-61
2022/11/05 06:38:17;;;;;;;26.35;17.58;;;;;;;13.05;100.00;94143.56;5010815;28;20641;-61
2022/11/05 06:40:42;;;;;;;28.83;16.87;;;;;;;13.05;100.00;94148.69;5010520;28;20202;-60
2022/11/05 06:43:07;;;;;;;23.50;15.00;;;;;;;13.09;100.00;94147.41;5009422;28;20214;-60
2022/11/05 06:45:33;;;;;;;28.30;16.15;;;;;;;13.23;100.00;94167.22;5010865;28;20206;-59
2022/11/05 06:47:59;;;;;;;25.60;16.90;;;;;;;13.16;100.00;94145.03;5010699;28;20213;-61
2022/11/05 06:50:25;;;;;;;24.15;15.35;;;;;;;13.25;100.00;94159.41;5010601;28;20655;-59
2022/11/05 06:52:54;;;;;;;23.48;15.05;;;;;;;13.43;99.66;94186.38;5010505;28;20250;-59
2022/11/05 06:55:19;;;;;;;20.67;14.33;;;;;;;13.40;99.97;94168.84;5010479;28;20284;-60
2022/11/05 06:57:45;;;;;;;24.52;14.80;;;;;;;13.38;99.40;94178.41;5010388;28;20294;-59
2022/11/05 07:00:11;;;;;;;23.53;14.70;;;;;;;13.41;100.00;94159.44;5010382;28;20317;-60
2022/11/05 07:02:36;;;;;;;23.20;14.00;;;;;;;13.34;99.23;94163.56;5010308;28;20268;-61
2022/11/05 07:05:02;;;;;;;25.77;15.65;;;;;;;13.50;98.35;94176.34;5010577;28;20187;-60
2022/11/05 07:07:27;;;;;;;24.67;15.00;;;;;;;13.32;99.18;94155.25;5010167;28;20223;-60
2022/11/05 07:09:53;;;;;;;25.70;15.13;;;;;;;13.61;98.03;94163.25;5010362;28;20187;-60
2022/11/05 07:12:18;;;;;;;25.93;16.30;;;;;;;13.69;97.54;94167.56;5010340;28;20261;-59
2022/11/05 07:14:44;;;;;;;23.92;14.57;;;;;;;13.79;98.28;94153.66;5010049;28;20210;-59
2022/11/05 07:17:09;;;;;;;25.75;15.95;;;;;;;14.11;95.72;94198.81;5009963;28;20203;-60
2022/11/05 07:19:36;;;;;;;24.30;16.63;;;;;;;14.28;93.54;94223.44;5009918;28;20681;-61
2022/11/05 07:22:02;;;;;;;22.50;15.83;;;;;;;14.38;93.18;94221.50;5010116;28;20211;-60
2022/11/05 07:24:27;;;;;;;26.27;16.17;;;;;;;14.36;93.89;94190.19;5008393;28;20729;-61
2022/11/05 07:26:53;;;;;;;26.92;16.17;;;;;;;14.52;93.17;94202.13;5008260;28;20223;-64
2022/11/05 07:29:19;;;;;;;27.52;16.55;;;;;;;14.71;95.24;94171.81;5013155;28;20650;-61
2022/11/05 07:31:45;;;;;;;27.13;17.38;;;;;;;15.09;89.78;94252.09;5013390;28;20202;-61
2022/11/05 07:34:12;;;;;;;27.63;16.42;;;;;;;15.32;86.77;94282.91;5013298;28;20197;-60
2022/11/05 07:36:38;;;;;;;23.23;16.75;;;;;;;15.50;86.03;94284.28;5013158;28;20283;-61
2022/11/05 07:39:04;;;;;;;27.02;17.42;;;;;;;15.54;85.03;94284.72;5012963;28;20265;-61
2022/11/05 07:41:29;;;;;;;29.05;17.23;;;;;;;15.70;84.52;94269.25;5011648;28;20816;-60
2022/11/05 07:43:55;;;;;;;28.50;17.45;;;;;;;16.16;82.62;94304.19;5012918;28;20187;-60
2022/11/05 07:46:20;;;;;;;27.73;16.50;;;;;;;16.45;81.33;94311.16;5012800;28;20223;-61
2022/11/05 07:48:46;;;;;;;32.30;18.65;;;;;;;16.68;79.29;94333.28;5012778;28;20236;-61
2022/11/05 07:51:13;;;;;;;30.08;18.23;;;;;;;16.94;77.04;94361.13;5013006;28;20225;-62
2022/11/05 07:53:47;;;;;;;24.73;16.65;;;;;;;17.12;75.02;94376.19;5012762;28;20186;-60
2022/11/05 07:56:14;;;;;;;27.20;18.17;;;;;;;17.20;74.92;94369.22;5013176;28;20222;-60
2022/11/05 07:58:39;;;;;;;30.60;18.77;;;;;;;17.33;75.60;94345.47;5012960;28;20183;-61
2022/11/05 08:01:06;;;;;;;30.67;19.20;;;;;;;17.64;74.35;94369.22;5012746;28;20215;-60
2022/11/05 08:03:32;;;;;;;31.05;20.70;;;;;;;17.91;72.32;94389.13;5012630;28;20187;-60
2022/11/05 08:05:58;;;;;;;25.80;19.20;;;;;;;18.11;71.03;94408.16;5011019;28;20213;-60
2022/11/05 08:08:24;;;;;;;31.48;20.85;;;;;;;18.31;81.79;94192.97;5012996;28;20190;-60
2022/11/05 08:10:50;;;;;;;32.17;21.30;;;;;;;18.65;72.25;94418.00;5012564;28;20237;-59
2022/11/05 08:13:16;;;;;;;38.60;20.30;;;;;;;18.85;67.79;94467.91;5012579;28;20249;-60
2022/11/05 08:15:42;;;;;;;29.67;17.63;;;;;;;19.00;74.75;94275.41;5011146;28;20251;-59
2022/11/05 08:18:13;;;;;;;25.65;17.48;;;;;;;18.98;69.45;94416.53;5012376;28;20217;-60
2022/11/05 08:20:40;;;;;;;24.52;16.63;;;;;;;19.22;69.85;94393.72;5012562;28;20221;-59
2022/11/05 08:23:06;;;;;;;24.92;17.00;;;;;;;19.48;72.06;94323.47;5010972;28;20214;-60
2022/11/05 08:25:32;;;;;;;27.38;17.17;;;;;;;19.80;71.75;94315.06;5012324;28;20237;-61
2022/11/05 08:28:03;;;;;;;33.92;18.52;;;;;;;20.20;65.13;94496.69;5012163;28;20213;-60
2022/11/05 08:30:30;;;;;;;30.05;18.40;;;;;;;20.45;61.57;94538.31;5012078;28;21090;-60
2022/11/05 08:32:58;;;;;;;23.70;16.27;;;;;;;20.60;67.46;94378.81;5012257;28;20214;-61
2022/11/05 08:35:25;;;;;;;23.88;15.90;;;;;;;20.86;63.19;94480.41;5011927;28;20209;-61
2022/11/05 08:37:55;;;;;;;21.40;14.88;;;;;;;21.29;59.24;94571.38;5010892;28;20214;-60
2022/11/05 08:40:21;;;;;;;27.02;18.08;;;;;;;21.58;59.07;94539.97;5011484;28;20175;-61
2022/11/05 08:42:46;;;;;;;26.60;16.83;;;;;;;21.76;57.22;94562.63;5012186;28;20222;-61
2022/11/05 08:45:12;;;;;;;25.05;16.83;;;;;;;21.81;56.54;94567.22;5011989;28;20179;-62
2022/11/05 08:47:37;;;;;;;21.33;16.23;;;;;;;21.80;55.45;94583.72;5031832;23;20247;-63
2022/11/05 08:50:06;;;;;;;21.27;14.25;;;;;;;21.56;54.16;94593.69;5031830;28;20178;-62
2022/11/05 08:52:31;;;;;;;21.88;15.05;;;;;;;21.68;53.06;94619.78;5021862;28;20227;-61
2022/11/05 08:54:57;;;;;;;24.98;15.57;;;;;;;21.92;53.58;94595.13;5011994;28;20684;-62
2022/11/05 08:57:22;;;;;;;21.13;14.00;;;;;;;21.83;52.45;94609.25;5011776;28;20207;-62
2022/11/05 08:59:48;;;;;;;24.67;14.05;;;;;;;21.38;53.90;94557.25;5010610;28;20697;-64
2022/11/05 09:02:13;;;;;;;18.08;13.32;;;;;;;21.35;53.85;94542.13;5011940;28;20277;-62
2022/11/05 09:04:39;;;;;;;18.95;13.90;;;;;;;20.75;53.75;94537.81;5018596;22;20808;-62
2022/11/05 09:07:05;;;;;;;21.50;14.02;;;;;;;20.17;56.02;94457.53;5011670;28;20298;-61
2022/11/05 09:09:31;;;;;;;26.83;14.23;;;;;;;20.14;57.23;94419.19;5011542;28;20606;-62
2022/11/05 09:11:57;;;;;;;19.58;13.77;;;;;;;20.28;56.51;94459.59;5011706;28;20226;-61
2022/11/05 09:14:25;;;;;;;19.65;14.00;;;;;;;20.30;55.76;94470.53;5011639;28;20662;-61
2022/11/05 09:16:51;;;;;;;23.83;14.10;;;;;;;20.17;56.35;94460.09;5012298;28;20214;-61
2022/11/05 09:19:16;;;;;;;22.10;13.52;;;;;;;19.99;56.11;94448.53;5012621;28;20627;-60
2022/11/05 09:21:42;;;;;;;19.50;13.43;;;;;;;19.66;57.76;94408.88;5012477;28;20650;-60
2022/11/05 09:24:08;;;;;;;22.48;13.50;;;;;;;19.78;57.05;94419.44;5012329;28;20270;-60
2022/11/05 09:26:33;;;;;;;19.27;12.98;;;;;;;19.54;58.08;94386.38;5012066;28;20218;-60
2022/11/05 09:28:58;;;;;;;20.55;13.95;;;;;;;19.37;58.70;94369.63;5012339;28;20560;-63
2022/11/05 09:31:24;;;;;;;28.30;13.65;;;;;;;19.06;59.29;94337.31;5012037;28;20211;-63
2022/11/05 09:33:49;;;;;;;20.98;13.60;;;;;;;18.94;59.43;94340.59;5012554;28;20279;-61
2022/11/05 09:36:15;;;;;;;21.38;12.98;;;;;;;19.22;58.97;94344.75;5011991;28;20260;-61
2022/11/05 09:38:40;;;;;;;20.90;12.95;;;;;;;19.43;58.37;94379.19;5010767;28;20286;-60
2022/11/05 09:41:23;;;;;;;21.92;13.13;;;;;;;19.47;58.31;94375.25;5011774;28;20207;-60
2022/11/05 09:43:54;;;;;;;22.88;13.05;;;;;;;19.49;57.85;94384.38;4995398;28;20198;-60
2022/11/05 09:46:19;;;;;;;20.35;11.90;;;;;;;19.36;58.69;94353.38;5011581;28;20755;-61
2022/11/05 09:48:56;;;;;;;24.40;13.25;;;;;;;19.58;56.66;94419.34;5011921;28;20187;-61
2022/11/05 09:51:21;;;;;;;22.27;12.95;;;;;;;19.67;57.68;94389.03;5010724;28;20260;-61
2022/11/05 09:53:48;;;;;;;17.50;12.57;;;;;;;19.60;57.06;94386.41;5010621;28;20286;-62
2022/11/05 09:56:26;;;;;;;25.85;13.55;;;;;;;19.37;57.95;94365.28;5011869;28;20233;-61
2022/11/05 09:59:00;;;;;;;18.33;13.20;;;;;;;19.78;57.82;94371.22;5011971;28;20195;-60
2022/11/05 10:01:31;;;;;;;20.38;12.30;;;;;;;19.84;56.35;94419.47;5011622;28;20210;-61
2022/11/05 10:04:00;;;;;;;18.88;12.32;;;;;;;19.63;55.70;94444.56;5011942;28;20281;-60
2022/11/05 10:06:27;;;;;;;16.60;10.88;;;;;;;19.64;54.65;94475.31;5011141;28;20712;-60
2022/11/05 10:09:19;;;;;;;19.50;12.15;;;;;;;19.77;54.98;94461.72;5010266;28;20672;-60
2022/11/05 10:11:49;;;;;;;17.80;10.35;;;;;;;19.69;53.31;94498.78;5011609;28;20214;-63
2022/11/05 10:14:21;;;;;;;17.73;11.35;;;;;;;19.57;54.47;94466.75;5011549;28;20210;-62
2022/11/05 10:16:53;;;;;;;17.23;11.80;;;;;;;19.50;54.24;94449.63;5011244;28;20719;-61
2022/11/05 10:19:26;;;;;;;18.90;12.00;;;;;;;19.20;55.79;94395.69;5012070;28;20198;-62
2022/11/05 10:22:10;;;;;;;14.55;11.68;;;;;;;19.16;56.65;94370.47;5011415;28;20204;-63
2022/11/05 10:24:46;;;;;;;19.92;12.73;;;;;;;19.32;56.01;94392.56;5009943;28;20241;-61
2022/11/05 10:27:34;;;;;;;20.83;11.90;;;;;;;19.23;57.42;94336.00;5010950;28;20293;-60
2022/11/05 10:30:00;;;;;;;22.75;11.52;;;;;;;19.30;57.77;94343.78;5010648;28;20198;-61
2022/11/05 10:32:37;;;;;;;16.67;10.02;;;;;;;19.40;56.76;94375.19;5011229;28;20198;-60
2022/11/05 10:35:05;;;;;;;18.23;11.55;;;;;;;19.48;56.73;94371.66;5011276;28;20691;-61
2022/11/05 10:37:32;;;;;;;15.35;10.60;;;;;;;19.58;55.20;94421.91;5010886;28;20231;-61
2022/11/05 10:39:57;;;;;;;14.05;10.13;;;;;;;19.28;54.82;94426.47;5011064;28;20213;-63
2022/11/05 10:42:43;;;;;;;20.17;11.15;;;;;;;19.26;54.85;94419.91;5011092;28;20242;-64
2022/11/05 10:45:50;;;;;;;18.25;11.30;;;;;;;19.70;55.29;94402.34;5011125;28;20194;-63
2022/11/05 10:48:21;;;;;;;20.23;11.48;;;;;;;19.82;53.97;94460.13;4950752;29;20197;-61
2022/11/05 10:50:47;;;;;;;19.40;11.60;;;;;;;19.55;53.99;94437.78;4950675;28;20208;-61
2022/11/05 10:53:21;;;;;;;18.67;11.43;;;;;;;19.70;54.01;94441.03;4981013;28;20209;-62
2022/11/05 10:55:49;;;;;;;21.95;13.07;;;;;;;19.84;54.68;94424.63;5010896;28;20194;-62
2022/11/05 10:58:14;;;;;;;23.63;11.93;;;;;;;19.89;55.42;94385.34;5009491;28;20201;-62
2022/11/05 11:00:42;;;;;;;25.92;11.93;;;;;;;19.81;56.20;94364.88;5010993;28;20187;-61
2022/11/05 11:03:27;;;;;;;22.23;12.68;;;;;;;19.87;55.31;94389.91;5012276;28;20233;-61
2022/11/05 11:05:59;;;;;;;22.27;10.80;;;;;;;19.96;55.69;94375.84;5014102;28;20232;-62
2022/11/05 11:08:24;;;;;;;20.13;11.38;;;;;;;20.08;54.96;94397.50;5014550;28;20187;-62
2022/11/05 11:10:53;;;;;;;17.95;10.70;;;;;;;20.26;55.40;94382.31;5014458;28;20556;-62
2022/11/05 11:13:27;;;;;;;22.65;11.85;;;;;;;20.30;53.96;94429.97;5014507;28;20206;-62
2022/11/05 11:15:54;;;;;;;15.05;10.88;;;;;;;20.24;53.46;94437.72;5014448;28;20185;-62
2022/11/05 11:18:41;;;;;;;19.00;11.73;;;;;;;20.30;51.87;94499.69;5014487;28;20657;-62
2022/11/05 11:21:18;;;;;;;19.95;11.23;;;;;;;20.27;52.25;94470.91;5014183;28;20229;-62
2022/11/05 11:24:01;;;;;;;19.30;10.82;;;;;;;20.11;52.97;94435.88;5012806;28;20277;-62
2022/11/05 11:26:31;;;;;;;19.25;10.85;;;;;;;19.87;52.51;94437.16;5014026;28;20226;-61
2022/11/05 11:29:27;;;;;;;20.73;11.32;;;;;;;19.79;54.28;94384.91;5014013;28;20662;-61
2022/11/05 11:31:57;;;;;;;18.88;11.60;;;;;;;19.81;55.01;94370.84;5008933;28;20226;-61
2022/11/05 11:34:32;;;;;;;18.10;11.02;;;;;;;19.73;52.70;94432.91;5014449;28;20187;-63
2022/11/05 11:37:06;;;;;;;21.55;11.07;;;;;;;19.58;53.04;94429.66;5014096;28;20313;-62
2022/11/05 11:39:32;;;;;;;19.73;11.55;;;;;;;19.31;54.40;94371.13;5014056;28;20189;-62
2022/11/05 11:42:01;;;;;;;21.40;11.55;;;;;;;19.16;54.17;94386.72;5013806;28;20230;-62
2022/11/05 11:44:35;;;;;;;17.50;11.35;;;;;;;18.68;55.83;94318.03;5013925;28;20191;-62
2022/11/05 11:47:08;;;;;;;21.85;11.38;;;;;;;18.62;56.70;94292.22;5013796;28;20700;-60
2022/11/05 11:49:52;;;;;;;17.08;11.50;;;;;;;18.74;55.60;94339.66;5014142;28;20183;-61
2022/11/05 11:52:33;;;;;;;18.83;11.70;;;;;;;18.62;56.19;94323.13;5013642;28;20246;-60
2022/11/05 11:55:11;;;;;;;22.85;12.48;;;;;;;18.41;57.29;94282.72;5013932;28;20194;-61
2022/11/05 11:57:48;;;;;;;22.60;13.23;;;;;;;18.16;58.32;94250.66;5013485;28;20214;-62
2022/11/05 12:00:16;;;;;;;24.20;12.05;;;;;;;18.06;58.75;94235.50;5013583;28;20183;-61
2022/11/05 12:03:03;;;;;;;23.00;11.75;;;;;;;18.39;57.72;94266.66;5013720;28;20265;-61
2022/11/05 12:05:36;;;;;;;17.77;11.88;;;;;;;18.15;58.43;94251.63;5013664;28;20194;-61
2022/11/05 12:08:26;;;;;;;19.73;11.15;;;;;;;17.94;58.99;94231.84;5013602;28;20214;-61